sensor_id;sensor_type;location;lat;lon;timestamp;temperature;humidity
1504;DHT22;743;47.076;15.494;2023-01-24T00:01:14;7.20;99.90
1504;DHT22;743;47.076;15.494;2023-01-24T00:03:41;7.70;99.90
1504;DHT22;743;47.076;15.494;2023-01-24T00:08:36;7.80;1.00
1504;DHT22;743;47.076;15.494;2023-01-24T00:11:05;7.70;99.90
1504;DHT22;743;47.076;15.494;2023-01-24T00:13:35;7.50;1.00
1504;DHT22;743;47.076;15.494;2023-01-24T00:16:04;7.80;1.00
1504;DHT22;743;47.076;15.494;2023-01-24T00:18:32;7.80;99.90
1504;DHT22;743;47.076;15.494;2023-01-24T00:21:01;8.00;99.90
1504;DHT22;743;47.076;15.494;2023-01-24T00:25:57;7.80;94.30
1504;DHT22;743;47.076;15.494;2023-01-24T00:28:24;7.60;1.00
1504;DHT22;743;47.076;15.494;2023-01-24T00:30:53;7.50;1.00
1504;DHT22;743;47.076;15.494;2023-01-24T00:33:20;7.90;39.50
1504;DHT22;743;47.076;15.494;2023-01-24T00:35:49;7.40;1.00
1504;DHT22;743;47.076;15.494;2023-01-24T00:38:17;7.40;99.90
1504;DHT22;743;47.076;15.494;2023-01-24T00:40:44;7.70;99.90
1504;DHT22;743;47.076;15.494;2023-01-24T00:43:13;7.20;99.90
1504;DHT22;743;47.076;15.494;2023-01-24T00:45:41;7.30;99.90
1504;DHT22;743;47.076;15.494;2023-01-24T00:48:12;7.30;99.90
1504;DHT22;743;47.076;15.494;2023-01-24T00:50:40;7.50;72.80
1504;DHT22;743;47.076;15.494;2023-01-24T00:55:40;7.20;1.00
1504;DHT22;743;47.076;15.494;2023-01-24T00:58:08;7.30;99.90
1504;DHT22;743;47.076;15.494;2023-01-24T01:00:37;7.40;99.90
1504;DHT22;743;47.076;15.494;2023-01-24T01:03:05;7.30;1.00
1504;DHT22;743;47.076;15.494;2023-01-24T01:05:37;7.40;1.00
1504;DHT22;743;47.076;15.494;2023-01-24T01:10:32;7.50;99.90
1504;DHT22;743;47.076;15.494;2023-01-24T01:13:00;7.70;1.00
1504;DHT22;743;47.076;15.494;2023-01-24T01:15:28;7.40;1.00
1504;DHT22;743;47.076;15.494;2023-01-24T01:17:57;7.50;1.00
1504;DHT22;743;47.076;15.494;2023-01-24T01:20:25;7.50;1.00
1504;DHT22;743;47.076;15.494;2023-01-24T01:22:55;7.20;1.00
1504;DHT22;743;47.076;15.494;2023-01-24T01:25:22;7.40;1.00
1504;DHT22;743;47.076;15.494;2023-01-24T01:27:51;7.10;1.00
1504;DHT22;743;47.076;15.494;2023-01-24T01:30:21;7.20;99.90
1504;DHT22;743;47.076;15.494;2023-01-24T01:32:48;7.50;1.00
1504;DHT22;743;47.076;15.494;2023-01-24T01:35:17;7.00;99.90
1504;DHT22;743;47.076;15.494;2023-01-24T01:37:47;7.40;1.00
1504;DHT22;743;47.076;15.494;2023-01-24T01:40:16;7.70;99.90
1504;DHT22;743;47.076;15.494;2023-01-24T01:42:53;7.40;1.00
1504;DHT22;743;47.076;15.494;2023-01-24T01:45:33;7.20;98.80
1504;DHT22;743;47.076;15.494;2023-01-24T01:48:11;7.50;1.00
1504;DHT22;743;47.076;15.494;2023-01-24T01:50:44;7.40;1.00
1504;DHT22;743;47.076;15.494;2023-01-24T01:53:13;7.50;1.00
1504;DHT22;743;47.076;15.494;2023-01-24T01:55:47;7.40;1.00
1504;DHT22;743;47.076;15.494;2023-01-24T01:58:17;7.60;1.00
1504;DHT22;743;47.076;15.494;2023-01-24T02:00:47;7.40;1.00
1504;DHT22;743;47.076;15.494;2023-01-24T02:03:20;7.30;99.90
1504;DHT22;743;47.076;15.494;2023-01-24T02:06:15;7.40;1.00
1504;DHT22;743;47.076;15.494;2023-01-24T02:08:44;7.40;1.00
1504;DHT22;743;47.076;15.494;2023-01-24T02:11:13;7.40;1.00
1504;DHT22;743;47.076;15.494;2023-01-24T02:13:59;7.50;99.90
1504;DHT22;743;47.076;15.494;2023-01-24T02:22:22;7.30;1.00
1504;DHT22;743;47.076;15.494;2023-01-24T02:25:00;7.30;99.90
1504;DHT22;743;47.076;15.494;2023-01-24T02:27:31;7.10;99.90
1504;DHT22;743;47.076;15.494;2023-01-24T02:32:28;7.60;99.90
1504;DHT22;743;47.076;15.494;2023-01-24T02:34:56;7.60;98.80
1504;DHT22;743;47.076;15.494;2023-01-24T02:37:24;7.50;99.90
1504;DHT22;743;47.076;15.494;2023-01-24T02:40:01;7.50;99.90
1504;DHT22;743;47.076;15.494;2023-01-24T02:42:34;7.40;1.00
1504;DHT22;743;47.076;15.494;2023-01-24T02:45:10;7.50;99.90
1504;DHT22;743;47.076;15.494;2023-01-24T02:47:43;7.20;1.00
1504;DHT22;743;47.076;15.494;2023-01-24T02:50:12;7.10;1.00
1504;DHT22;743;47.076;15.494;2023-01-24T02:57:54;7.30;99.90
1504;DHT22;743;47.076;15.494;2023-01-24T03:00:33;6.90;99.90
1504;DHT22;743;47.076;15.494;2023-01-24T03:03:00;6.60;39.10
1504;DHT22;743;47.076;15.494;2023-01-24T03:05:30;6.90;99.90
1504;DHT22;743;47.076;15.494;2023-01-24T03:08:06;6.60;99.90
1504;DHT22;743;47.076;15.494;2023-01-24T03:13:03;7.30;99.90
1504;DHT22;743;47.076;15.494;2023-01-24T03:18:33;7.30;1.00
1504;DHT22;743;47.076;15.494;2023-01-24T03:21:18;7.40;99.90
1504;DHT22;743;47.076;15.494;2023-01-24T03:24:03;6.80;99.90
1504;DHT22;743;47.076;15.494;2023-01-24T03:26:48;6.90;99.90
1504;DHT22;743;47.076;15.494;2023-01-24T03:29:34;7.30;99.90
1504;DHT22;743;47.076;15.494;2023-01-24T03:32:19;7.40;99.90
1504;DHT22;743;47.076;15.494;2023-01-24T03:35:05;7.70;99.90
1504;DHT22;743;47.076;15.494;2023-01-24T03:37:32;7.50;24.00
1504;DHT22;743;47.076;15.494;2023-01-24T03:40:17;7.40;99.90
1504;DHT22;743;47.076;15.494;2023-01-24T03:42:44;7.00;99.90
1504;DHT22;743;47.076;15.494;2023-01-24T03:45:18;7.50;1.00
1504;DHT22;743;47.076;15.494;2023-01-24T03:47:46;7.30;99.90
1504;DHT22;743;47.076;15.494;2023-01-24T03:50:32;7.40;1.00
1504;DHT22;743;47.076;15.494;2023-01-24T03:53:18;7.40;99.90
1504;DHT22;743;47.076;15.494;2023-01-24T03:55:46;7.60;99.90
1504;DHT22;743;47.076;15.494;2023-01-24T03:58:14;7.50;99.90
1504;DHT22;743;47.076;15.494;2023-01-24T04:00:44;7.30;1.00
1504;DHT22;743;47.076;15.494;2023-01-24T04:03:13;7.20;99.90
1504;DHT22;743;47.076;15.494;2023-01-24T04:08:07;7.20;99.90
1504;DHT22;743;47.076;15.494;2023-01-24T04:10:35;7.50;99.90
1504;DHT22;743;47.076;15.494;2023-01-24T04:13:02;7.50;99.90
1504;DHT22;743;47.076;15.494;2023-01-24T04:15:32;7.20;99.90
1504;DHT22;743;47.076;15.494;2023-01-24T04:18:01;7.50;1.00
1504;DHT22;743;47.076;15.494;2023-01-24T04:20:32;7.50;1.00
1504;DHT22;743;47.076;15.494;2023-01-24T04:23:00;7.50;1.00
1504;DHT22;743;47.076;15.494;2023-01-24T04:27:56;7.30;51.00
1504;DHT22;743;47.076;15.494;2023-01-24T04:30:24;7.30;1.00
1504;DHT22;743;47.076;15.494;2023-01-24T04:32:51;7.20;50.50
1504;DHT22;743;47.076;15.494;2023-01-24T04:35:22;7.40;1.00
1504;DHT22;743;47.076;15.494;2023-01-24T04:37:51;7.20;99.90
1504;DHT22;743;47.076;15.494;2023-01-24T04:40:19;7.40;36.10
1504;DHT22;743;47.076;15.494;2023-01-24T04:42:47;7.30;99.90
1504;DHT22;743;47.076;15.494;2023-01-24T04:45:16;7.60;1.00
1504;DHT22;743;47.076;15.494;2023-01-24T04:47:43;7.70;98.70
1504;DHT22;743;47.076;15.494;2023-01-24T04:50:13;7.70;99.90
1504;DHT22;743;47.076;15.494;2023-01-24T04:52:42;7.70;1.00
1504;DHT22;743;47.076;15.494;2023-01-24T04:57:48;7.60;99.90
1504;DHT22;743;47.076;15.494;2023-01-24T05:00:18;7.00;1.00
1504;DHT22;743;47.076;15.494;2023-01-24T05:02:45;7.50;1.00
1504;DHT22;743;47.076;15.494;2023-01-24T05:05:18;7.40;99.90
1504;DHT22;743;47.076;15.494;2023-01-24T05:07:48;7.60;1.00
1504;DHT22;743;47.076;15.494;2023-01-24T05:10:16;7.70;68.50
1504;DHT22;743;47.076;15.494;2023-01-24T05:12:44;7.40;1.00
1504;DHT22;743;47.076;15.494;2023-01-24T05:15:13;7.60;99.90
1504;DHT22;743;47.076;15.494;2023-01-24T05:17:43;7.00;99.90
1504;DHT22;743;47.076;15.494;2023-01-24T05:20:11;7.50;99.90
1504;DHT22;743;47.076;15.494;2023-01-24T05:22:56;7.70;1.00
1504;DHT22;743;47.076;15.494;2023-01-24T05:25:27;7.60;1.00
1504;DHT22;743;47.076;15.494;2023-01-24T05:30:23;7.70;43.70
1504;DHT22;743;47.076;15.494;2023-01-24T05:32:55;7.50;1.00
1504;DHT22;743;47.076;15.494;2023-01-24T05:35:24;7.30;1.00
1504;DHT22;743;47.076;15.494;2023-01-24T05:37:53;7.40;99.90
1504;DHT22;743;47.076;15.494;2023-01-24T05:40:22;7.30;99.90
1504;DHT22;743;47.076;15.494;2023-01-24T05:42:50;7.60;99.90
1504;DHT22;743;47.076;15.494;2023-01-24T05:45:19;7.70;1.00
1504;DHT22;743;47.076;15.494;2023-01-24T05:47:47;7.50;99.90
1504;DHT22;743;47.076;15.494;2023-01-24T05:50:16;7.50;99.90
1504;DHT22;743;47.076;15.494;2023-01-24T05:52:43;7.10;1.00
1504;DHT22;743;47.076;15.494;2023-01-24T05:55:17;7.50;1.00
1504;DHT22;743;47.076;15.494;2023-01-24T05:57:44;7.80;1.00
1504;DHT22;743;47.076;15.494;2023-01-24T06:00:13;7.60;99.90
1504;DHT22;743;47.076;15.494;2023-01-24T06:02:40;7.00;99.90
1504;DHT22;743;47.076;15.494;2023-01-24T06:05:08;7.00;1.00
1504;DHT22;743;47.076;15.494;2023-01-24T06:07:35;7.20;99.90
1504;DHT22;743;47.076;15.494;2023-01-24T06:10:04;7.00;1.00
1504;DHT22;743;47.076;15.494;2023-01-24T06:12:33;7.40;1.00
1504;DHT22;743;47.076;15.494;2023-01-24T06:15:00;7.20;99.90
1504;DHT22;743;47.076;15.494;2023-01-24T06:17:27;7.40;1.00
1504;DHT22;743;47.076;15.494;2023-01-24T06:19:55;7.60;99.90
1504;DHT22;743;47.076;15.494;2023-01-24T06:22:28;7.40;1.00
1504;DHT22;743;47.076;15.494;2023-01-24T06:25:01;7.90;99.90
1504;DHT22;743;47.076;15.494;2023-01-24T06:27:34;7.20;99.90
1504;DHT22;743;47.076;15.494;2023-01-24T06:30:02;7.50;99.90
1504;DHT22;743;47.076;15.494;2023-01-24T06:32:38;7.70;55.60
1504;DHT22;743;47.076;15.494;2023-01-24T06:35:15;7.80;1.00
1504;DHT22;743;47.076;15.494;2023-01-24T06:37:48;7.70;1.00
1504;DHT22;743;47.076;15.494;2023-01-24T06:40:18;7.80;99.90
1504;DHT22;743;47.076;15.494;2023-01-24T06:42:49;7.80;99.90
1504;DHT22;743;47.076;15.494;2023-01-24T06:45:18;7.90;1.00
1504;DHT22;743;47.076;15.494;2023-01-24T06:47:45;7.60;1.00
1504;DHT22;743;47.076;15.494;2023-01-24T06:50:16;8.60;99.90
1504;DHT22;743;47.076;15.494;2023-01-24T06:52:47;8.50;99.90
1504;DHT22;743;47.076;15.494;2023-01-24T06:55:16;8.70;1.00
1504;DHT22;743;47.076;15.494;2023-01-24T06:57:54;9.00;1.30
1504;DHT22;743;47.076;15.494;2023-01-24T07:02:57;7.90;1.00
1504;DHT22;743;47.076;15.494;2023-01-24T07:05:24;7.60;1.00
1504;DHT22;743;47.076;15.494;2023-01-24T07:07:53;7.50;76.60
1504;DHT22;743;47.076;15.494;2023-01-24T07:10:23;7.60;99.90
1504;DHT22;743;47.076;15.494;2023-01-24T07:12:52;7.50;1.00
1504;DHT22;743;47.076;15.494;2023-01-24T07:17:48;7.00;99.90
1504;DHT22;743;47.076;15.494;2023-01-24T07:20:17;7.60;1.00
1504;DHT22;743;47.076;15.494;2023-01-24T07:22:45;7.40;99.90
1504;DHT22;743;47.076;15.494;2023-01-24T07:25:19;7.50;99.90
1504;DHT22;743;47.076;15.494;2023-01-24T07:27:49;7.60;99.90
1504;DHT22;743;47.076;15.494;2023-01-24T07:30:21;7.50;1.00
1504;DHT22;743;47.076;15.494;2023-01-24T07:32:53;7.50;1.00
1504;DHT22;743;47.076;15.494;2023-01-24T07:35:20;7.80;99.90
1504;DHT22;743;47.076;15.494;2023-01-24T07:37:51;7.60;99.90
1504;DHT22;743;47.076;15.494;2023-01-24T07:40:18;7.80;68.80
1504;DHT22;743;47.076;15.494;2023-01-24T07:42:46;7.60;1.00
1504;DHT22;743;47.076;15.494;2023-01-24T07:45:13;7.40;99.90
1504;DHT22;743;47.076;15.494;2023-01-24T07:47:42;7.70;99.90
1504;DHT22;743;47.076;15.494;2023-01-24T07:50:11;7.40;99.90
1504;DHT22;743;47.076;15.494;2023-01-24T07:52:39;7.90;99.90
1504;DHT22;743;47.076;15.494;2023-01-24T07:55:07;7.40;1.00
1504;DHT22;743;47.076;15.494;2023-01-24T07:57:34;7.50;99.90
1504;DHT22;743;47.076;15.494;2023-01-24T08:00:02;7.60;92.80
1504;DHT22;743;47.076;15.494;2023-01-24T08:02:31;8.00;99.90
1504;DHT22;743;47.076;15.494;2023-01-24T08:04:59;11.10;1.00
1504;DHT22;743;47.076;15.494;2023-01-24T08:09:57;11.20;1.00
1504;DHT22;743;47.076;15.494;2023-01-24T08:12:25;10.80;1.00
1504;DHT22;743;47.076;15.494;2023-01-24T08:17:19;10.10;1.00
1504;DHT22;743;47.076;15.494;2023-01-24T08:19:47;9.40;1.00
1504;DHT22;743;47.076;15.494;2023-01-24T08:22:16;9.60;1.00
1504;DHT22;743;47.076;15.494;2023-01-24T08:24:44;9.60;1.00
1504;DHT22;743;47.076;15.494;2023-01-24T08:27:12;9.50;1.00
1504;DHT22;743;47.076;15.494;2023-01-24T08:29:39;9.30;1.00
1504;DHT22;743;47.076;15.494;2023-01-24T08:32:06;8.80;1.00
1504;DHT22;743;47.076;15.494;2023-01-24T08:34:33;8.50;1.00
1504;DHT22;743;47.076;15.494;2023-01-24T08:37:01;8.80;1.00
1504;DHT22;743;47.076;15.494;2023-01-24T08:39:30;8.50;1.00
1504;DHT22;743;47.076;15.494;2023-01-24T08:44:24;8.30;23.20
1504;DHT22;743;47.076;15.494;2023-01-24T08:46:52;8.50;32.20
1504;DHT22;743;47.076;15.494;2023-01-24T08:49:20;8.50;1.00
1504;DHT22;743;47.076;15.494;2023-01-24T08:54:19;8.10;1.00
1504;DHT22;743;47.076;15.494;2023-01-24T08:56:51;7.80;99.90
1504;DHT22;743;47.076;15.494;2023-01-24T08:59:18;7.90;99.90
1504;DHT22;743;47.076;15.494;2023-01-24T09:01:45;7.70;88.50
1504;DHT22;743;47.076;15.494;2023-01-24T09:04:13;7.90;99.90
1504;DHT22;743;47.076;15.494;2023-01-24T09:06:41;8.10;96.00
1504;DHT22;743;47.076;15.494;2023-01-24T09:09:08;7.80;1.00
1504;DHT22;743;47.076;15.494;2023-01-24T09:14:05;7.70;99.90
1504;DHT22;743;47.076;15.494;2023-01-24T09:16:35;7.90;1.00
1504;DHT22;743;47.076;15.494;2023-01-24T09:19:02;8.20;1.00
1504;DHT22;743;47.076;15.494;2023-01-24T09:21:31;8.20;1.00
1504;DHT22;743;47.076;15.494;2023-01-24T09:23:58;8.10;1.00
1504;DHT22;743;47.076;15.494;2023-01-24T09:26:28;8.30;99.90
1504;DHT22;743;47.076;15.494;2023-01-24T09:28:56;7.70;99.90
1504;DHT22;743;47.076;15.494;2023-01-24T09:31:27;8.30;99.90
1504;DHT22;743;47.076;15.494;2023-01-24T09:36:24;8.30;99.90
1504;DHT22;743;47.076;15.494;2023-01-24T09:38:52;7.80;99.90
1504;DHT22;743;47.076;15.494;2023-01-24T09:41:26;8.00;1.00
1504;DHT22;743;47.076;15.494;2023-01-24T09:44:00;8.20;99.90
1504;DHT22;743;47.076;15.494;2023-01-24T09:46:33;8.20;1.00
1504;DHT22;743;47.076;15.494;2023-01-24T09:49:13;8.50;99.90
1504;DHT22;743;47.076;15.494;2023-01-24T09:51:45;8.50;72.20
1504;DHT22;743;47.076;15.494;2023-01-24T09:54:19;8.40;99.90
1504;DHT22;743;47.076;15.494;2023-01-24T09:56:49;8.40;99.80
1504;DHT22;743;47.076;15.494;2023-01-24T09:59:23;8.00;1.00
1504;DHT22;743;47.076;15.494;2023-01-24T10:01:55;10.70;99.90
1504;DHT22;743;47.076;15.494;2023-01-24T10:04:29;11.10;1.00
1504;DHT22;743;47.076;15.494;2023-01-24T10:07:23;11.10;1.00
1504;DHT22;743;47.076;15.494;2023-01-24T10:10:02;10.60;1.00
1504;DHT22;743;47.076;15.494;2023-01-24T10:12:42;10.20;1.00
1504;DHT22;743;47.076;15.494;2023-01-24T10:15:15;9.90;1.00
1504;DHT22;743;47.076;15.494;2023-01-24T10:18:05;9.10;1.00
1504;DHT22;743;47.076;15.494;2023-01-24T10:20:51;8.60;1.00
1504;DHT22;743;47.076;15.494;2023-01-24T10:23:24;8.50;1.00
1504;DHT22;743;47.076;15.494;2023-01-24T10:25:56;8.10;43.90
1504;DHT22;743;47.076;15.494;2023-01-24T10:28:28;8.20;40.80
1504;DHT22;743;47.076;15.494;2023-01-24T10:31:05;8.80;1.00
1504;DHT22;743;47.076;15.494;2023-01-24T10:33:41;8.50;1.00
1504;DHT22;743;47.076;15.494;2023-01-24T10:36:13;8.50;1.00
1504;DHT22;743;47.076;15.494;2023-01-24T10:38:46;8.50;1.00
1504;DHT22;743;47.076;15.494;2023-01-24T10:41:17;8.20;19.30
1504;DHT22;743;47.076;15.494;2023-01-24T10:43:48;8.90;1.00
1504;DHT22;743;47.076;15.494;2023-01-24T10:46:42;8.70;1.00
1504;DHT22;743;47.076;15.494;2023-01-24T10:49:19;8.90;1.00
1504;DHT22;743;47.076;15.494;2023-01-24T10:54:48;8.90;20.50
1504;DHT22;743;47.076;15.494;2023-01-24T10:57:35;8.60;1.00
1504;DHT22;743;47.076;15.494;2023-01-24T11:00:19;8.50;1.00
1504;DHT22;743;47.076;15.494;2023-01-24T11:02:52;8.70;1.00
1504;DHT22;743;47.076;15.494;2023-01-24T11:05:23;8.70;1.00
1504;DHT22;743;47.076;15.494;2023-01-24T11:07:53;8.60;1.00
1504;DHT22;743;47.076;15.494;2023-01-24T11:10:35;8.50;28.80
1504;DHT22;743;47.076;15.494;2023-01-24T11:13:28;8.60;1.00
1504;DHT22;743;47.076;15.494;2023-01-24T11:16:01;8.50;1.00
1504;DHT22;743;47.076;15.494;2023-01-24T11:18:36;8.60;1.00
1504;DHT22;743;47.076;15.494;2023-01-24T11:21:11;8.60;1.00
1504;DHT22;743;47.076;15.494;2023-01-24T11:23:40;8.80;20.30
1504;DHT22;743;47.076;15.494;2023-01-24T11:26:21;8.60;1.00
1504;DHT22;743;47.076;15.494;2023-01-24T11:28:57;8.60;1.00
1504;DHT22;743;47.076;15.494;2023-01-24T11:31:29;8.50;44.40
1504;DHT22;743;47.076;15.494;2023-01-24T11:34:12;8.80;1.00
1504;DHT22;743;47.076;15.494;2023-01-24T11:36:51;8.60;30.30
1504;DHT22;743;47.076;15.494;2023-01-24T11:39:30;8.50;1.00
1504;DHT22;743;47.076;15.494;2023-01-24T11:42:06;8.50;1.00
1504;DHT22;743;47.076;15.494;2023-01-24T11:45:23;8.40;1.00
1504;DHT22;743;47.076;15.494;2023-01-24T11:50:54;8.70;90.40
1504;DHT22;743;47.076;15.494;2023-01-24T11:53:49;8.40;1.00
1504;DHT22;743;47.076;15.494;2023-01-24T11:56:29;8.90;1.00
1504;DHT22;743;47.076;15.494;2023-01-24T11:59:34;8.80;1.00
1504;DHT22;743;47.076;15.494;2023-01-24T12:02:21;8.80;1.00
1504;DHT22;743;47.076;15.494;2023-01-24T12:05:12;9.20;1.00
1504;DHT22;743;47.076;15.494;2023-01-24T12:07:55;8.80;1.00
1504;DHT22;743;47.076;15.494;2023-01-24T12:10:48;8.80;1.00
1504;DHT22;743;47.076;15.494;2023-01-24T12:13:27;8.90;1.00
1504;DHT22;743;47.076;15.494;2023-01-24T12:16:08;9.10;5.20
1504;DHT22;743;47.076;15.494;2023-01-24T12:19:33;9.00;1.00
1504;DHT22;743;47.076;15.494;2023-01-24T12:22:12;8.80;1.00
1504;DHT22;743;47.076;15.494;2023-01-24T12:24:43;9.10;49.80
1504;DHT22;743;47.076;15.494;2023-01-24T12:27:23;9.80;1.00
1504;DHT22;743;47.076;15.494;2023-01-24T12:29:58;10.80;1.00
1504;DHT22;743;47.076;15.494;2023-01-24T12:32:36;10.40;1.00
1504;DHT22;743;47.076;15.494;2023-01-24T12:35:16;9.80;1.00
1504;DHT22;743;47.076;15.494;2023-01-24T12:37:55;10.00;1.00
1504;DHT22;743;47.076;15.494;2023-01-24T12:40:44;10.40;1.00
1504;DHT22;743;47.076;15.494;2023-01-24T12:43:21;10.60;1.00
1504;DHT22;743;47.076;15.494;2023-01-24T12:46:01;10.20;1.00
1504;DHT22;743;47.076;15.494;2023-01-24T12:48:40;9.80;1.00
1504;DHT22;743;47.076;15.494;2023-01-24T12:51:20;9.70;1.00
1504;DHT22;743;47.076;15.494;2023-01-24T12:54:02;9.90;1.00
1504;DHT22;743;47.076;15.494;2023-01-24T12:56:40;8.90;1.00
1504;DHT22;743;47.076;15.494;2023-01-24T12:59:23;9.50;1.00
1504;DHT22;743;47.076;15.494;2023-01-24T13:02:07;9.80;1.00
1504;DHT22;743;47.076;15.494;2023-01-24T13:04:55;9.50;10.10
1504;DHT22;743;47.076;15.494;2023-01-24T13:07:34;9.40;34.40
1504;DHT22;743;47.076;15.494;2023-01-24T13:10:14;9.30;20.00
1504;DHT22;743;47.076;15.494;2023-01-24T13:12:45;9.00;36.20
1504;DHT22;743;47.076;15.494;2023-01-24T13:15:25;9.20;1.00
1504;DHT22;743;47.076;15.494;2023-01-24T13:18:03;9.00;1.00
1504;DHT22;743;47.076;15.494;2023-01-24T13:20:54;9.20;1.00
1504;DHT22;743;47.076;15.494;2023-01-24T13:24:11;9.20;1.00
1504;DHT22;743;47.076;15.494;2023-01-24T13:27:12;9.20;1.00
1504;DHT22;743;47.076;15.494;2023-01-24T13:29:59;9.30;48.50
1504;DHT22;743;47.076;15.494;2023-01-24T13:32:37;9.10;1.00
1504;DHT22;743;47.076;15.494;2023-01-24T13:35:25;9.50;24.40
1504;DHT22;743;47.076;15.494;2023-01-24T13:37:58;12.10;1.00
1504;DHT22;743;47.076;15.494;2023-01-24T13:40:33;13.60;1.00
1504;DHT22;743;47.076;15.494;2023-01-24T13:46:17;14.10;1.00
1504;DHT22;743;47.076;15.494;2023-01-24T13:48:58;12.90;1.00
1504;DHT22;743;47.076;15.494;2023-01-24T13:51:44;12.40;1.00
1504;DHT22;743;47.076;15.494;2023-01-24T13:54:37;11.60;1.00
1504;DHT22;743;47.076;15.494;2023-01-24T13:57:22;11.00;1.00
1504;DHT22;743;47.076;15.494;2023-01-24T14:00:23;11.90;1.00
1504;DHT22;743;47.076;15.494;2023-01-24T14:03:03;11.60;1.00
1504;DHT22;743;47.076;15.494;2023-01-24T14:05:47;11.20;1.00
1504;DHT22;743;47.076;15.494;2023-01-24T14:08:38;11.00;1.00
1504;DHT22;743;47.076;15.494;2023-01-24T14:11:37;10.60;1.00
1504;DHT22;743;47.076;15.494;2023-01-24T14:14:26;10.50;1.00
1504;DHT22;743;47.076;15.494;2023-01-24T14:16:59;10.50;1.00
1504;DHT22;743;47.076;15.494;2023-01-24T14:19:33;10.40;1.00
1504;DHT22;743;47.076;15.494;2023-01-24T14:22:23;10.40;1.00
1504;DHT22;743;47.076;15.494;2023-01-24T14:24:56;10.20;1.00
1504;DHT22;743;47.076;15.494;2023-01-24T14:27:35;10.50;1.00
1504;DHT22;743;47.076;15.494;2023-01-24T14:30:33;10.80;1.00
1504;DHT22;743;47.076;15.494;2023-01-24T14:33:13;10.50;1.00
1504;DHT22;743;47.076;15.494;2023-01-24T14:35:59;10.10;1.00
1504;DHT22;743;47.076;15.494;2023-01-24T14:38:30;10.10;1.00
1504;DHT22;743;47.076;15.494;2023-01-24T14:41:03;10.70;1.00
1504;DHT22;743;47.076;15.494;2023-01-24T14:43:39;9.40;1.00
1504;DHT22;743;47.076;15.494;2023-01-24T14:46:12;9.60;1.00
1504;DHT22;743;47.076;15.494;2023-01-24T14:48:42;8.80;1.00
1504;DHT22;743;47.076;15.494;2023-01-24T14:51:18;9.50;1.00
1504;DHT22;743;47.076;15.494;2023-01-24T14:53:53;9.70;1.00
1504;DHT22;743;47.076;15.494;2023-01-24T14:56:23;9.40;1.00
1504;DHT22;743;47.076;15.494;2023-01-24T14:59:09;9.80;1.00
1504;DHT22;743;47.076;15.494;2023-01-24T15:01:39;9.30;1.00
1504;DHT22;743;47.076;15.494;2023-01-24T15:04:23;9.50;1.00
1504;DHT22;743;47.076;15.494;2023-01-24T15:07:04;9.80;99.90
1504;DHT22;743;47.076;15.494;2023-01-24T15:09:40;10.00;1.00
1504;DHT22;743;47.076;15.494;2023-01-24T15:12:20;9.80;1.00
1504;DHT22;743;47.076;15.494;2023-01-24T15:14:52;9.80;1.00
1504;DHT22;743;47.076;15.494;2023-01-24T15:17:25;9.40;1.00
1504;DHT22;743;47.076;15.494;2023-01-24T15:19:56;9.40;1.00
1504;DHT22;743;47.076;15.494;2023-01-24T15:22:27;9.20;1.00
1504;DHT22;743;47.076;15.494;2023-01-24T15:25:17;9.30;1.00
1504;DHT22;743;47.076;15.494;2023-01-24T15:30:20;9.10;1.00
1504;DHT22;743;47.076;15.494;2023-01-24T15:32:58;9.30;1.00
1504;DHT22;743;47.076;15.494;2023-01-24T15:35:32;8.90;60.30
1504;DHT22;743;47.076;15.494;2023-01-24T15:38:22;9.00;1.00
1504;DHT22;743;47.076;15.494;2023-01-24T15:40:59;8.90;1.00
1504;DHT22;743;47.076;15.494;2023-01-24T15:43:34;8.50;1.00
1504;DHT22;743;47.076;15.494;2023-01-24T15:46:32;8.80;1.00
1504;DHT22;743;47.076;15.494;2023-01-24T15:49:29;9.00;1.00
1504;DHT22;743;47.076;15.494;2023-01-24T15:52:24;8.50;99.90
1504;DHT22;743;47.076;15.494;2023-01-24T15:54:54;8.60;1.00
1504;DHT22;743;47.076;15.494;2023-01-24T15:57:29;8.70;1.00
1504;DHT22;743;47.076;15.494;2023-01-24T15:59:59;8.50;1.00
1504;DHT22;743;47.076;15.494;2023-01-24T16:02:29;8.40;99.90
1504;DHT22;743;47.076;15.494;2023-01-24T16:04:58;9.90;99.90
1504;DHT22;743;47.076;15.494;2023-01-24T16:07:27;12.10;1.00
1504;DHT22;743;47.076;15.494;2023-01-24T16:12:35;14.20;1.00
1504;DHT22;743;47.076;15.494;2023-01-24T16:15:16;13.30;1.00
1504;DHT22;743;47.076;15.494;2023-01-24T16:17:44;12.90;1.00
1504;DHT22;743;47.076;15.494;2023-01-24T16:20:19;11.40;1.00
1504;DHT22;743;47.076;15.494;2023-01-24T16:22:49;10.50;1.00
1504;DHT22;743;47.076;15.494;2023-01-24T16:25:20;9.80;1.00
1504;DHT22;743;47.076;15.494;2023-01-24T16:27:53;9.20;1.00
1504;DHT22;743;47.076;15.494;2023-01-24T16:30:23;9.10;1.00
1504;DHT22;743;47.076;15.494;2023-01-24T16:32:55;8.70;1.00
1504;DHT22;743;47.076;15.494;2023-01-24T16:35:23;8.60;1.00
1504;DHT22;743;47.076;15.494;2023-01-24T16:37:52;8.50;1.00
1504;DHT22;743;47.076;15.494;2023-01-24T16:40:21;8.60;1.00
1504;DHT22;743;47.076;15.494;2023-01-24T16:42:51;8.40;1.00
1504;DHT22;743;47.076;15.494;2023-01-24T16:47:55;8.80;17.30
1504;DHT22;743;47.076;15.494;2023-01-24T16:50:24;8.40;1.00
1504;DHT22;743;47.076;15.494;2023-01-24T16:52:52;8.80;88.10
1504;DHT22;743;47.076;15.494;2023-01-24T16:55:20;8.60;1.00
1504;DHT22;743;47.076;15.494;2023-01-24T16:57:51;8.40;1.00
1504;DHT22;743;47.076;15.494;2023-01-24T17:00:19;8.30;99.90
1504;DHT22;743;47.076;15.494;2023-01-24T17:02:49;8.70;44.60
1504;DHT22;743;47.076;15.494;2023-01-24T17:05:18;8.30;1.00
1504;DHT22;743;47.076;15.494;2023-01-24T17:07:48;8.20;99.90
1504;DHT22;743;47.076;15.494;2023-01-24T17:10:18;8.30;1.00
1504;DHT22;743;47.076;15.494;2023-01-24T17:12:47;8.10;99.90
1504;DHT22;743;47.076;15.494;2023-01-24T17:15:16;7.90;1.00
1504;DHT22;743;47.076;15.494;2023-01-24T17:20:17;8.20;1.00
1504;DHT22;743;47.076;15.494;2023-01-24T17:22:46;8.20;1.00
1504;DHT22;743;47.076;15.494;2023-01-24T17:25:14;8.30;94.90
1504;DHT22;743;47.076;15.494;2023-01-24T17:27:44;8.20;1.00
1504;DHT22;743;47.076;15.494;2023-01-24T17:30:17;7.80;99.90
1504;DHT22;743;47.076;15.494;2023-01-24T17:35:20;8.30;1.00
1504;DHT22;743;47.076;15.494;2023-01-24T17:37:52;8.20;1.00
1504;DHT22;743;47.076;15.494;2023-01-24T17:42:52;8.10;1.00
1504;DHT22;743;47.076;15.494;2023-01-24T17:45:21;8.30;69.80
1504;DHT22;743;47.076;15.494;2023-01-24T17:47:50;8.10;1.00
1504;DHT22;743;47.076;15.494;2023-01-24T17:50:20;8.40;99.90
1504;DHT22;743;47.076;15.494;2023-01-24T17:52:48;8.30;99.90
1504;DHT22;743;47.076;15.494;2023-01-24T17:55:17;8.40;99.90
1504;DHT22;743;47.076;15.494;2023-01-24T17:57:45;8.80;83.50
1504;DHT22;743;47.076;15.494;2023-01-24T18:00:23;8.70;1.00
1504;DHT22;743;47.076;15.494;2023-01-24T18:05:20;8.80;1.00
1504;DHT22;743;47.076;15.494;2023-01-24T18:07:49;8.60;1.00
1504;DHT22;743;47.076;15.494;2023-01-24T18:10:22;8.40;1.00
1504;DHT22;743;47.076;15.494;2023-01-24T18:13:02;8.40;99.90
1504;DHT22;743;47.076;15.494;2023-01-24T18:15:33;8.20;90.80
1504;DHT22;743;47.076;15.494;2023-01-24T18:18:06;8.20;99.90
1504;DHT22;743;47.076;15.494;2023-01-24T18:20:37;8.10;1.00
1504;DHT22;743;47.076;15.494;2023-01-24T18:23:08;8.10;1.00
1504;DHT22;743;47.076;15.494;2023-01-24T18:25:39;8.00;1.00
1504;DHT22;743;47.076;15.494;2023-01-24T18:28:09;8.00;1.00
1504;DHT22;743;47.076;15.494;2023-01-24T18:30:40;7.90;1.00
1504;DHT22;743;47.076;15.494;2023-01-24T18:33:17;7.90;1.00
1504;DHT22;743;47.076;15.494;2023-01-24T18:35:48;7.90;99.90